Terminal Aerodrome Forecast
Issued by NWS

Home | Current Version | Previous Version | Graphics & Text | Print | Product List | Glossary On
Versions: 1 2 3 4 5 6 7 8 9 10 11 12 13 14 15 16 17 18 19 20 21 22 23
000
FTUS43 KABR 171100
TAFPIR
TAF
KPIR 171131Z 1712/1812 02007KT P6SM FEW070 SCT120 BKN250
     FM171400 05008KT P6SM FEW120 SCT250
     FM172300 09010KT P6SM FEW050 BKN090 OVC150
     FM180600 09006KT P6SM -SHRA BKN050 OVC080=

USA.gov is the U.S. government's official web portal to all federal, state and local government web resources and services.